NCAR-RAP Real-Time Weather Data

Output produced by METARs form (17 December 2018  07:44 UTC)
found at http://weather.rap.ucar.edu/surface/
 
RJBT 170700Z 30008KT 270V330 9999 -SHRA FEW020 SCT030 BKN040 08/08 Q1010
RJBT 170600Z VRB04KT 9999 FEW025 SCT035 BKN050 09/06 Q1009
RJBT 170500Z 26008KT 160V320 9999 -SHRA FEW020 SCT035 BKN050 09/08 Q1009
RJBT 170400Z 25004KT 200V300 9999 FEW008 SCT035 BKN070 09/09 Q1009
RJBT 170300Z VRB06KT 9999 -SHRA FEW015 SCT035 BKN045 10/07 Q1009
RJBT 170200Z 28005KT 230V320 9999 VCSH FEW005 SCT040 BKN050 09/09 Q1010
RJBT 170100Z 28007KT 230V350 9999 -SHRA FEW000 SCT035 BKN045 08/08 Q1011
RJBT 170036Z 17003KT 120V220 5000 BCFG VCSH FEW000 SCT030 07/07 Q1011 RMK 1ST000 3CU030 A2986 FG BANK AROUND
RJBT 170000Z 20005KT 150V240 3000 BCFG FEW000 SCT030 07/07 Q1011
RJBT 162330Z 21005KT 1500 BCFG FEW000 SCT025 05/05 Q1011
RJBT 160900Z 20005KT 9999 -RA FEW015 SCT050 BKN070 07/07 Q1016
RJBT 160800Z 19005KT 9999 -RA FEW015 SCT050 BKN070 07/07 Q1017
RJBT 160700Z 19007KT 9999 -RA FEW025 SCT050 BKN070 08/08 Q1018
RJBT 160600Z 19010KT 9999 -RA FEW025 SCT050 OVC070 09/07 Q1018
RJBT 160500Z 19011KT 9999 FEW030 SCT100 BKN120 09/06 Q1018
RJBT 160400Z 19010KT 9999 FEW030 SCT120 BKN140 09/07 Q1018
RJBT 160300Z 19005KT 150V220 9999 FEW030 SCT100 BKN140 07/07 Q1020
RJBT 160200Z 22003KT 170V260 9999 FEW020 SCT120 BKN150 05/05 Q1021
RJBT 160100Z 19004KT 150V220 9999 FEW000 SCT140 BKN/// 03/03 Q1022
RJBT 160000Z 21008KT 9999 FEW000 SCT150 02/02 Q1022
RJBT 152330Z 22007KT 9999 FEW000 SCT150 BKN/// 00/00 Q1022
RJBT 150900Z VRB02KT 9999 FEW025 SCT040 03/03 Q1028
RJBT 150800Z 25004KT 9999 FEW025 SCT035 04/02 Q1028
RJBT 150700Z 30003KT 270V340 9999 FEW025 BKN050 06/M01 Q1028
RJBT 150600Z 01005KT 320V050 9999 FEW025 SCT030 06/M04 Q1028
RJBT 150500Z 01006KT 9999 FEW025 BKN050 07/M04 Q1028
RJBT 150400Z 34003KT 280V040 9999 FEW020 SCT030 BKN040 06/M04 Q1028
RJBT 150300Z 36006KT 310V020 9999 FEW000 BKN050 06/00 Q1029
RJBT 150200Z 01005KT 320V050 9999 FEW000 BKN060 06/M01 Q1029
RJBT 150107Z 36004KT 330V030 9999 VCSH FEW000 SCT030 BKN040 04/02 Q1030 RMK 1ST000 3CU030 7CU040 A3043
RJBT 150100Z 36004KT 310V040 9999 -SHSN FEW000 SCT030 BKN040 04/02 Q1030
RJBT 150023Z 36005KT 330V030 9999 VCSH FEW000 SCT030 BKN040 03/03 Q1030 RMK 1ST000 3CU030 7CU040 A3042
RJBT 150000Z 36003KT 320V050 9999 -SHSN FEW000 SCT030 BKN040 03/03 Q1030
RJBT 142330Z 01003KT 330V050 9999 -SHGS FEW000 SCT030 BKN035 03/03 Q1030